x

Middle Nomad (46004) Wave Buoy

5:00pm - Sun 5th Jul 2015 All times are PDT. -7 hours from GMT.

  • Sig Wave height 5.2ft
  • Peak Period 10s
  • Wind
    20mph, 22mph gusts
  • Sea Temp 59°f
  • Air Temp 58°f
  • Sea Pressure 1023.7mb
  • Middle Nomad
  • Middle Nomad

More Historic Weather Station data

Upgrade to MSW Pro to gain access to the past 30 days of data for over 8000 Wavebouys and Weather Stations around the globe.

Join Pro

Comparision Forecast

View Surf forecast
   
Sun 07/05 5:00pm 5ft 10s 20 22 mph 1023.7mb 59f 58f
4:00pm 5.5ft 5s 20 25 mph 1023.9mb 59f 58f
3:00pm 5ft 5s 18 22 mph 1024.1mb 59f 58f
2:00pm 5.5ft 9s 18 22 mph 1024.2mb 59f 58f
1:00pm 5ft 9s 20 25 mph 1024.2mb 59f 58f
12:00pm 5ft 10s 18 22 mph 1024.3mb 59f 58f
11:00am 5ft 4s 18 22 mph 1024.6mb 59f 58f
10:00am 5ft 9s 18 22 mph 1024.7mb 59f 58f
9:00am 5ft 10s 18 20 mph 1024.7mb 59f 58f
8:00am 5ft 10s 18 22 mph 1024.7mb 59f 58f
7:00am 5ft 9s 16 20 mph 1024.6mb 59f 58f
6:00am 5ft 9s 16 18 mph 1024.6mb 59f 58f
5:00am 4.5ft 9s 16 18 mph 1024.4mb 59f 58f
4:00am 4.5ft 10s 16 18 mph 1024.5mb 59f 58f
3:00am 4.5ft 10s 13 18 mph 1024.8mb 59f 58f
2:00am 4.5ft 10s 13 18 mph 1025.1mb 59f 58f
1:00am 4.5ft 10s 13 16 mph 1025.6mb 59f 58f
12:00am 4.5ft 10s 16 18 mph 1026mb 59f 58f
Sat 07/04 11:00pm 4.5ft 10s 13 16 mph 1026.2mb 59f 58f
10:00pm 4.5ft 10s 13 18 mph 1026.2mb 59f 58f
9:00pm 4.5ft 9s 16 18 mph 1026.2mb 59f 58f
8:00pm 4.5ft 9s 18 20 mph 1025.9mb 59f 58f
7:00pm 4.5ft 10s 16 18 mph 1026mb 59f 58f
6:00pm 4ft 10s 13 16 mph 1026.1mb 59f 59f
5:00pm 4.5ft 8s 11 13 mph 1026.4mb 59f 59f
4:00pm 4.5ft 10s 13 16 mph 1026.5mb 59f 58f
3:00pm 4.5ft 9s 11 13 mph 1026.6mb 59f 58f
2:00pm 4.5ft 9s 11 13 mph 1026.9mb 59f 58f
1:00pm 4.5ft 9s 11 13 mph 1026.8mb 59f 58f
12:00pm 4.5ft 10s 11 13 mph 1026.8mb 59f 58f
11:00am 4.5ft 9s 11 13 mph 1026.9mb 59f 57f
10:00am 4ft 9s 9 11 mph 1026.7mb 59f 58f
9:00am 4ft 10s 9
mph
1026.7mb 59f 58f
6:00am 3.5ft 9s 9 11 mph 1026mb 59f 58f
5:00am 3.5ft 10s 11 13 mph 1025.8mb 59f 58f
4:00am 3.5ft 11s 4
mph
1026mb 59f 58f
3:00am 3.5ft 10s 7
mph
1026.3mb 59f 58f
2:00am 3.5ft 10s 4
mph
1026.2mb 59f 57f
1:00am 4ft 7s 4 7 mph 1026.1mb 59f 57f
12:00am 4ft 7s 4
mph
1026.1mb 59f 57f
Fri 07/03 11:00pm 3.5ft 8s 2 4 mph 1026.3mb 59f 57f
10:00pm 4ft 7s 2 4 mph 1026.2mb 59f 57f
9:00pm 4ft 7s 4
mph
1025.7mb 59f 57f
8:00pm 3.5ft 7s 4 7 mph 1025.7mb 59f 57f
7:00pm 3.5ft 7s 7 9 mph 1025.8mb 59f 57f
6:00pm 3.5ft 7s 4 7 mph 1026.1mb 59f 57f
5:00pm 3.5ft 8s 9
mph
1025.6mb 59f 57f
4:00pm 3.5ft 8s 9 11 mph 1025.6mb 59f 57f
3:00pm 3.5ft 8s 9 11 mph 1025.7mb 59f 57f
2:00pm 4ft 8s 11 13 mph 1025.6mb 59f 57f
1:00pm 4.5ft 8s 13 16 mph 1025.3mb 59f 57f
12:00pm 4.5ft 8s 13 16 mph 1025.4mb 59f 56f
11:00am 5ft 8s 13 16 mph 1025.3mb 59f 56f
10:00am 4.5ft 8s 16 20 mph 1024.9mb 59f 56f
9:00am 4.5ft 8s 16 18 mph 1024.9mb 59f 57f
8:00am 4.5ft 8s 18 20 mph 1024.4mb 59f 57f
7:00am 4.5ft 9s 16 18 mph 1024.2mb 59f 57f
6:00am 4.5ft 8s 13 18 mph 1023.9mb 59f 57f
5:00am 4.5ft 7s 16 18 mph 1023.9mb 59f 57f
4:00am 4.5ft 8s 13 16 mph 1024.1mb 59f 57f
3:00am 4.5ft 8s 16 18 mph 1024.4mb 59f 57f
2:00am 4.5ft 8s 13 16 mph 1024.7mb 59f 57f
1:00am 5ft 8s 13 16 mph 1025.1mb 59f 57f
12:00am 5ft 8s 13 16 mph 1025.2mb 59f 57f
Thu 07/02 11:00pm 5ft 9s 11 13 mph 1025.8mb 59f 57f
10:00pm 5ft 8s 11 13 mph 1026mb 59f 56f
9:00pm 5ft 7s 9
mph
1026.3mb 59f 56f
8:00pm 4.5ft 7s 9
mph
1026.3mb 59f 56f
7:00pm 5ft 7s 7 9 mph 1026.5mb 59f 58f
6:00pm 4.5ft 8s 7 9 mph 1026.3mb 59f 58f
5:00pm 4.5ft 7s 7 9 mph 1026.4mb 59f 58f
4:00pm 4ft 7s 7 9 mph 1026.5mb 59f 58f
3:00pm 4ft 8s 7 9 mph 1026.3mb 59f 57f
2:00pm 3.5ft 8s 7 9 mph 1026.1mb 59f 57f
1:00pm 4ft 8s 7 9 mph 1025.9mb 59f 57f
12:00pm 3.5ft 8s 7 9 mph 1025.7mb 58f 57f
11:00am 4.5ft 8s 7 9 mph 1025.4mb 58f 57f
10:00am 4.5ft 7s 7 9 mph 1025.2mb 58f 56f
9:00am 5ft 8s 7 9 mph 1024.9mb 58f 56f
8:00am 5ft 7s 4 9 mph 1024.6mb 58f 56f
7:00am 5ft 8s 7
mph
1024.2mb 58f 56f
6:00am 5ft 7s 4 7 mph 1024mb 58f 56f
4:00am 5ft 8s 9 11 mph 1023.1mb 58f 56f
3:00am 5ft 7s 11 13 mph 1022.8mb 58f 56f
2:00am 5.5ft 8s 13
mph
1022.6mb 58f 56f